createdAt,value
2017-12-03T00:00:29.676Z,113.60
2017-12-03T00:01:04.860Z,115.90
2017-12-03T00:01:40.270Z,112.20
2017-12-03T00:02:15.469Z,119.80
2017-12-03T00:02:50.746Z,130.10
2017-12-03T00:03:26.086Z,127.00
2017-12-03T00:04:01.566Z,129.80
2017-12-03T00:04:36.774Z,125.00
2017-12-03T00:05:12.183Z,110.30
2017-12-03T00:05:47.570Z,118.70
2017-12-03T00:06:22.869Z,128.80
2017-12-03T00:06:58.347Z,128.80
2017-12-03T00:07:33.957Z,122.10
2017-12-03T00:08:09.243Z,121.10
2017-12-03T00:08:44.477Z,114.80
2017-12-03T00:09:20.006Z,117.40
2017-12-03T00:09:55.273Z,114.30
2017-12-03T00:10:30.573Z,112.70
2017-12-03T00:11:06.144Z,116.20
2017-12-03T00:11:41.356Z,120.10
2017-12-03T00:12:16.560Z,117.70
2017-12-03T00:12:52.354Z,118.90
2017-12-03T00:13:27.988Z,122.90
2017-12-03T00:14:03.270Z,119.50
2017-12-03T00:14:38.477Z,119.10
2017-12-03T00:15:13.984Z,124.10
2017-12-03T00:15:49.368Z,115.40
2017-12-03T00:16:24.576Z,111.80
2017-12-03T00:17:00.073Z,114.50
2017-12-03T00:17:35.380Z,114.20
2017-12-03T00:18:11.292Z,122.20
2017-12-03T00:18:46.603Z,130.20
2017-12-03T00:19:22.010Z,132.10
2017-12-03T00:19:57.489Z,121.00
2017-12-03T00:20:32.702Z,120.60
2017-12-03T00:21:07.977Z,119.40
2017-12-03T00:21:43.384Z,121.60
2017-12-03T00:22:18.692Z,122.80
2017-12-03T00:22:53.772Z,118.50
2017-12-03T00:23:29.306Z,120.20
2017-12-03T00:24:04.810Z,121.90
2017-12-03T00:24:40.315Z,119.20
2017-12-03T00:25:15.729Z,117.30
2017-12-03T00:25:51.305Z,123.00
2017-12-03T00:26:26.915Z,120.10
2017-12-03T00:27:02.095Z,119.80
2017-12-03T00:27:37.602Z,123.30
2017-12-03T00:28:12.706Z,122.70
2017-12-03T00:28:48.107Z,121.90
2017-12-03T00:29:23.215Z,119.40
2017-12-03T00:29:58.399Z,125.70
2017-12-03T00:30:33.802Z,123.00
2017-12-03T00:31:09.179Z,130.50
2017-12-03T00:31:44.728Z,137.70
2017-12-03T00:32:20.284Z,134.40
2017-12-03T00:32:55.464Z,124.50
2017-12-03T00:33:30.772Z,125.80
2017-12-03T00:34:06.077Z,127.50
2017-12-03T00:34:41.297Z,132.70
2017-12-03T00:35:16.841Z,124.90
2017-12-03T00:35:51.618Z,130.70
2017-12-03T00:36:27.024Z,128.30
2017-12-03T00:37:02.399Z,119.20
2017-12-03T00:37:37.509Z,119.40
2017-12-03T00:38:13.011Z,125.80
2017-12-03T00:38:48.219Z,119.80
2017-12-03T00:39:23.517Z,122.10
2017-12-03T00:39:59.860Z,120.60
2017-12-03T00:40:35.267Z,121.00
2017-12-03T00:41:10.363Z,125.20
2017-12-03T00:41:45.577Z,136.20
2017-12-03T00:42:21.183Z,142.90
2017-12-03T00:42:56.374Z,134.60
2017-12-03T00:43:31.568Z,125.60
2017-12-03T00:44:07.080Z,128.90
2017-12-03T00:44:43.259Z,130.20
2017-12-03T00:45:18.372Z,123.70
2017-12-03T00:45:53.556Z,132.30
2017-12-03T00:46:28.869Z,128.00
2017-12-03T00:47:04.255Z,117.60
2017-12-03T00:47:39.671Z,116.00
2017-12-03T00:48:14.872Z,121.70
2017-12-03T00:48:50.273Z,124.90
2017-12-03T00:49:25.879Z,121.50
2017-12-03T00:50:01.279Z,123.10
2017-12-03T00:50:36.487Z,122.80
2017-12-03T00:51:11.992Z,123.70
2017-12-03T00:51:47.484Z,124.50
2017-12-03T00:52:22.894Z,128.30
2017-12-03T00:52:58.070Z,129.90
2017-12-03T00:53:33.590Z,129.00
2017-12-03T00:54:09.299Z,129.20
2017-12-03T00:54:44.604Z,131.90
2017-12-03T00:55:20.011Z,126.90
2017-12-03T00:55:55.788Z,134.20
2017-12-03T00:56:31.092Z,124.30
2017-12-03T00:57:06.673Z,121.90
2017-12-03T00:57:41.978Z,119.00
2017-12-03T00:58:17.491Z,115.20
2017-12-03T00:58:52.801Z,121.90
2017-12-03T00:59:27.916Z,137.50
2017-12-03T01:00:03.496Z,136.00
2017-12-03T01:00:38.797Z,131.30
2017-12-03T01:01:14.105Z,136.80
2017-12-03T01:01:49.402Z,140.50
2017-12-03T01:02:24.722Z,131.90
2017-12-03T01:02:59.902Z,137.20
2017-12-03T01:03:35.204Z,130.70
2017-12-03T01:04:10.546Z,126.90
2017-12-03T01:04:45.729Z,126.60
2017-12-03T01:05:21.037Z,133.10
2017-12-03T01:05:56.127Z,139.40
2017-12-03T01:06:31.536Z,137.30
2017-12-03T01:07:06.716Z,130.00
2017-12-03T01:07:42.222Z,136.00
2017-12-03T01:08:17.739Z,147.70
2017-12-03T01:08:53.021Z,138.50
2017-12-03T01:09:28.397Z,131.30
2017-12-03T01:10:03.687Z,141.30
2017-12-03T01:10:38.992Z,131.80
2017-12-03T01:11:14.195Z,123.80
2017-12-03T01:11:49.587Z,128.90
2017-12-03T01:12:25.088Z,127.80
2017-12-03T01:13:00.471Z,130.00
2017-12-03T01:13:35.975Z,125.20
2017-12-03T01:14:11.793Z,122.80
2017-12-03T01:14:47.179Z,130.50
2017-12-03T01:15:22.779Z,138.70
2017-12-03T01:15:58.062Z,130.40
2017-12-03T01:16:33.368Z,134.30
2017-12-03T01:17:08.755Z,140.10
2017-12-03T01:17:44.361Z,133.50
2017-12-03T01:18:19.568Z,123.40
2017-12-03T01:18:54.850Z,133.00
2017-12-03T01:19:30.375Z,130.00
2017-12-03T01:20:05.763Z,136.90
2017-12-03T01:20:41.062Z,140.40
2017-12-03T01:21:16.368Z,133.70
2017-12-03T01:21:51.855Z,133.60
2017-12-03T01:22:27.379Z,134.60
2017-12-03T01:23:02.555Z,141.20
2017-12-03T01:23:37.469Z,140.50
2017-12-03T01:24:12.811Z,142.00
2017-12-03T01:24:48.182Z,136.60
2017-12-03T01:25:23.385Z,135.30
2017-12-03T01:25:58.678Z,146.20
2017-12-03T01:26:34.006Z,130.40
2017-12-03T01:27:09.275Z,127.20
2017-12-03T01:27:44.776Z,131.00
2017-12-03T01:28:19.981Z,135.60
2017-12-03T01:28:55.520Z,137.10
2017-12-03T01:29:30.681Z,135.40
2017-12-03T01:30:05.865Z,126.60
2017-12-03T01:30:41.380Z,138.30
2017-12-03T01:31:16.892Z,141.90
2017-12-03T01:31:52.071Z,130.10
2017-12-03T01:32:27.087Z,135.00
2017-12-03T01:33:02.471Z,138.70
2017-12-03T01:33:38.181Z,131.80
2017-12-03T01:34:13.323Z,127.60
2017-12-03T01:34:48.299Z,128.80
2017-12-03T01:35:23.514Z,136.60
2017-12-03T01:35:58.890Z,142.00
2017-12-03T01:36:33.996Z,140.30
2017-12-03T01:37:09.270Z,135.40
2017-12-03T01:37:44.574Z,131.90
2017-12-03T01:38:19.585Z,132.60
2017-12-03T01:38:54.691Z,133.60
2017-12-03T01:39:30.003Z,141.50
2017-12-03T01:40:05.599Z,143.60
2017-12-03T01:40:40.907Z,147.40
2017-12-03T01:41:16.610Z,137.10
2017-12-03T01:41:51.897Z,134.40
2017-12-03T01:42:27.709Z,125.00
2017-12-03T01:43:02.987Z,128.40
2017-12-03T01:43:38.399Z,124.90
2017-12-03T01:44:13.798Z,125.20
2017-12-03T01:44:49.106Z,124.90
2017-12-03T01:45:24.211Z,127.80
2017-12-03T01:45:59.837Z,132.60
2017-12-03T01:46:35.402Z,133.60
2017-12-03T01:47:10.882Z,133.60
2017-12-03T01:47:46.390Z,131.50
2017-12-03T01:48:21.794Z,123.80
2017-12-03T01:48:57.034Z,117.10
2017-12-03T01:49:32.306Z,118.50
2017-12-03T01:50:07.490Z,126.10
2017-12-03T01:50:42.691Z,125.60
2017-12-03T01:51:18.002Z,129.60
2017-12-03T01:51:53.091Z,125.00
2017-12-03T01:52:28.393Z,130.80
2017-12-03T01:53:03.373Z,123.30
2017-12-03T01:53:38.877Z,127.80
2017-12-03T01:54:14.145Z,126.10
2017-12-03T01:54:49.636Z,125.70
2017-12-03T01:55:24.941Z,140.40
2017-12-03T01:56:00.128Z,138.60
2017-12-03T01:56:35.632Z,143.10
2017-12-03T01:57:10.736Z,127.50
2017-12-03T01:57:46.216Z,121.60
2017-12-03T01:58:21.773Z,126.90
2017-12-03T01:58:57.078Z,136.90
2017-12-03T01:59:32.484Z,127.60
2017-12-03T02:00:08.080Z,133.20
2017-12-03T02:00:43.577Z,133.20
2017-12-03T02:01:18.896Z,125.80
2017-12-03T02:01:54.376Z,129.30
2017-12-03T02:02:29.680Z,122.30
2017-12-03T02:03:04.770Z,133.90
2017-12-03T02:03:39.866Z,135.30
2017-12-03T02:04:15.176Z,132.80
2017-12-03T02:04:50.489Z,143.30
2017-12-03T02:05:26.192Z,129.20
2017-12-03T02:06:01.578Z,126.90
2017-12-03T02:06:37.092Z,128.60
2017-12-03T02:07:12.390Z,130.40
2017-12-03T02:07:47.580Z,123.50
2017-12-03T02:08:22.988Z,127.20
2017-12-03T02:08:58.265Z,128.80
2017-12-03T02:09:33.878Z,124.40
2017-12-03T02:10:09.477Z,122.70
2017-12-03T02:10:44.787Z,110.30
2017-12-03T02:11:20.094Z,115.10
2017-12-03T02:11:55.077Z,120.00
2017-12-03T02:12:30.482Z,121.90
2017-12-03T02:13:06.070Z,118.00
2017-12-03T02:13:41.577Z,124.10
2017-12-03T02:14:16.785Z,126.30
2017-12-03T02:14:51.992Z,119.80
2017-12-03T02:15:27.336Z,118.90
2017-12-03T02:16:02.645Z,125.70
2017-12-03T02:16:38.175Z,127.60
2017-12-03T02:17:13.497Z,118.30
2017-12-03T02:17:48.670Z,116.00
2017-12-03T02:18:23.880Z,121.00
2017-12-03T02:18:59.351Z,114.60
2017-12-03T02:19:34.861Z,120.60
2017-12-03T02:20:10.262Z,124.80
2017-12-03T02:20:45.373Z,114.70
2017-12-03T02:21:20.578Z,113.10
2017-12-03T02:21:55.660Z,114.30
2017-12-03T02:22:30.972Z,110.20
2017-12-03T02:23:06.248Z,117.20
2017-12-03T02:23:41.757Z,121.80
2017-12-03T02:24:16.762Z,119.70
2017-12-03T02:24:52.178Z,122.70
2017-12-03T02:25:27.585Z,124.30
2017-12-03T02:26:03.268Z,118.90
2017-12-03T02:26:38.678Z,120.70
2017-12-03T02:27:14.385Z,126.60
2017-12-03T02:27:49.568Z,118.20
2017-12-03T02:28:24.980Z,111.40
2017-12-03T02:29:00.255Z,111.60
2017-12-03T02:29:35.461Z,112.90
2017-12-03T02:30:10.896Z,104.80
2017-12-03T02:30:46.072Z,109.40
2017-12-03T02:31:21.678Z,113.90
2017-12-03T02:31:57.154Z,107.30
2017-12-03T02:32:32.667Z,111.50
2017-12-03T02:33:08.234Z,112.30
2017-12-03T02:33:43.741Z,121.50
2017-12-03T02:34:19.145Z,118.40
2017-12-03T02:34:54.420Z,109.10
2017-12-03T02:35:30.149Z,114.20
2017-12-03T02:36:05.435Z,115.50
2017-12-03T02:36:40.734Z,109.10
2017-12-03T02:37:16.139Z,109.90
2017-12-03T02:37:51.624Z,109.90
2017-12-03T02:38:26.932Z,109.00
2017-12-03T02:39:02.310Z,116.00
2017-12-03T02:39:37.824Z,118.90
2017-12-03T02:40:13.154Z,109.00
2017-12-03T02:40:48.834Z,99.30
2017-12-03T02:41:24.150Z,107.40
2017-12-03T02:41:59.326Z,112.60
2017-12-03T02:42:34.542Z,114.10
2017-12-03T02:43:10.034Z,114.10
2017-12-03T02:43:45.332Z,102.40
2017-12-03T02:44:20.751Z,103.50
2017-12-03T02:44:56.042Z,109.40
2017-12-03T02:45:31.278Z,115.80
2017-12-03T02:46:07.178Z,110.90
2017-12-03T02:46:42.578Z,111.60
2017-12-03T02:47:18.177Z,115.90
2017-12-03T02:47:53.354Z,105.00
2017-12-03T02:48:28.568Z,103.80
2017-12-03T02:49:04.051Z,104.50
2017-12-03T02:49:39.366Z,104.00
2017-12-03T02:50:14.594Z,101.70
2017-12-03T02:50:49.499Z,88.90
2017-12-03T02:51:24.926Z,96.40
2017-12-03T02:52:00.313Z,107.20
2017-12-03T02:52:35.816Z,98.10
2017-12-03T02:53:11.325Z,102.80
2017-12-03T02:53:46.808Z,103.90
2017-12-03T02:54:22.221Z,103.70
2017-12-03T02:54:57.700Z,101.40
2017-12-03T02:55:33.047Z,106.50
2017-12-03T02:56:08.227Z,106.30
2017-12-03T02:56:43.432Z,99.80
2017-12-03T02:57:18.737Z,100.50
2017-12-03T02:57:54.119Z,93.10
2017-12-03T02:58:32.256Z,99.20
2017-12-03T02:59:07.946Z,106.90
2017-12-03T02:59:43.249Z,108.20
2017-12-03T03:00:18.575Z,108.50
2017-12-03T03:00:53.958Z,99.10
2017-12-03T03:01:29.465Z,96.70
2017-12-03T03:02:04.749Z,97.20
2017-12-03T03:02:40.058Z,111.50
2017-12-03T03:03:15.275Z,112.10
2017-12-03T03:03:50.454Z,111.30
2017-12-03T03:04:25.565Z,99.40
2017-12-03T03:05:01.052Z,97.00
2017-12-03T03:05:36.482Z,101.50
2017-12-03T03:06:11.894Z,95.50
2017-12-03T03:06:47.385Z,94.90
2017-12-03T03:07:22.691Z,96.30
2017-12-03T03:07:58.064Z,102.00
2017-12-03T03:08:33.580Z,105.40
2017-12-03T03:09:09.073Z,105.10
2017-12-03T03:09:44.294Z,99.00
2017-12-03T03:10:19.616Z,90.90
2017-12-03T03:10:55.016Z,91.20
2017-12-03T03:11:30.428Z,97.20
2017-12-03T03:12:05.603Z,103.70
2017-12-03T03:12:40.817Z,102.30
2017-12-03T03:13:16.125Z,96.40
2017-12-03T03:13:51.506Z,94.50
2017-12-03T03:14:26.942Z,99.70
2017-12-03T03:15:02.220Z,104.90
2017-12-03T03:15:37.758Z,104.20
2017-12-03T03:16:13.266Z,107.50
2017-12-03T03:16:49.230Z,95.90
2017-12-03T03:17:24.631Z,93.70
2017-12-03T03:17:59.808Z,95.70
2017-12-03T03:18:35.017Z,100.30
2017-12-03T03:19:10.399Z,105.80
2017-12-03T03:19:46.005Z,104.10
2017-12-03T03:20:21.503Z,110.50
2017-12-03T03:20:56.607Z,110.60
2017-12-03T03:21:31.713Z,106.90
2017-12-03T03:22:06.900Z,105.10
2017-12-03T03:22:42.403Z,105.50
2017-12-03T03:23:17.900Z,107.40
2017-12-03T03:23:53.306Z,103.30
2017-12-03T03:24:28.721Z,105.30
2017-12-03T03:25:04.224Z,98.40
2017-12-03T03:25:39.769Z,99.70
2017-12-03T03:26:15.072Z,108.30
2017-12-03T03:26:50.472Z,103.30
2017-12-03T03:27:25.599Z,98.10
2017-12-03T03:28:00.998Z,103.40
2017-12-03T03:28:36.220Z,95.40
2017-12-03T03:29:11.472Z,104.10
2017-12-03T03:29:46.722Z,102.10
2017-12-03T03:30:21.846Z,99.50
2017-12-03T03:30:57.359Z,94.50
2017-12-03T03:31:32.560Z,96.60
2017-12-03T03:32:08.046Z,100.70
2017-12-03T03:32:43.548Z,105.20
2017-12-03T03:33:19.176Z,99.60
2017-12-03T03:33:54.188Z,100.10
2017-12-03T03:34:29.200Z,102.80
2017-12-03T03:35:04.506Z,101.50
2017-12-03T03:35:39.957Z,102.80
2017-12-03T03:36:15.383Z,108.20
2017-12-03T03:36:50.783Z,104.40
2017-12-03T03:37:26.105Z,98.10
2017-12-03T03:38:01.346Z,104.30
2017-12-03T03:38:36.665Z,101.60
2017-12-03T03:39:11.891Z,103.00
2017-12-03T03:39:47.080Z,96.70
2017-12-03T03:40:22.100Z,95.60
2017-12-03T03:40:57.629Z,100.90
2017-12-03T03:41:32.742Z,100.60
2017-12-03T03:42:07.947Z,103.60
2017-12-03T03:42:43.769Z,98.70
2017-12-03T03:43:19.196Z,103.20
2017-12-03T03:43:54.780Z,105.60
2017-12-03T03:44:30.399Z,106.30
2017-12-03T03:45:05.686Z,102.70
2017-12-03T03:45:41.215Z,103.70
2017-12-03T03:46:16.583Z,105.30
2017-12-03T03:46:51.781Z,104.40
2017-12-03T03:47:27.114Z,111.10
2017-12-03T03:48:02.528Z,106.00
2017-12-03T03:48:37.944Z,99.70
2017-12-03T03:49:13.461Z,110.60
2017-12-03T03:49:49.166Z,107.10
2017-12-03T03:50:24.773Z,106.20
2017-12-03T03:51:00.480Z,105.50
2017-12-03T03:51:35.798Z,104.90
2017-12-03T03:52:11.088Z,107.80
2017-12-03T03:52:46.422Z,107.20
2017-12-03T03:53:21.647Z,110.40
2017-12-03T03:53:56.747Z,105.60
2017-12-03T03:54:31.967Z,113.90
2017-12-03T03:55:07.578Z,114.50
2017-12-03T03:55:43.007Z,108.00
2017-12-03T03:56:18.334Z,112.30
2017-12-03T03:56:53.840Z,118.00
2017-12-03T03:57:29.050Z,117.90
2017-12-03T03:58:04.147Z,111.60
2017-12-03T03:58:39.661Z,111.50
2017-12-03T03:59:14.894Z,115.60
2017-12-03T03:59:49.985Z,111.70
2017-12-03T04:00:25.309Z,110.20
2017-12-03T04:01:00.441Z,104.30
2017-12-03T04:01:36.349Z,113.10
2017-12-03T04:02:11.769Z,110.70
2017-12-03T04:02:47.179Z,113.20
2017-12-03T04:03:22.785Z,110.30
2017-12-03T04:03:57.995Z,104.00
2017-12-03T04:04:33.317Z,117.70
2017-12-03T04:05:08.510Z,114.90
2017-12-03T04:05:44.123Z,112.90
2017-12-03T04:06:19.673Z,108.30
2017-12-03T04:06:54.984Z,111.90
2017-12-03T04:07:30.406Z,109.20
2017-12-03T04:08:05.493Z,101.50
2017-12-03T04:08:40.708Z,105.60
2017-12-03T04:09:16.014Z,110.40
2017-12-03T04:09:51.518Z,108.60
2017-12-03T04:10:27.037Z,110.60
2017-12-03T04:11:02.629Z,112.00
2017-12-03T04:11:37.774Z,103.80
2017-12-03T04:12:13.205Z,106.50
2017-12-03T04:12:48.299Z,113.10
2017-12-03T04:13:23.630Z,111.90
2017-12-03T04:13:58.812Z,103.20
2017-12-03T04:14:34.036Z,104.60
2017-12-03T04:15:09.430Z,108.10
2017-12-03T04:15:44.936Z,110.60
2017-12-03T04:16:20.490Z,113.70
2017-12-03T04:16:55.792Z,114.30
2017-12-03T04:17:31.130Z,110.10
2017-12-03T04:18:06.634Z,117.60
2017-12-03T04:18:42.064Z,105.50
2017-12-03T04:19:17.498Z,103.20
2017-12-03T04:19:52.907Z,108.50
2017-12-03T04:20:28.236Z,102.30
2017-12-03T04:21:03.347Z,103.90
2017-12-03T04:21:38.605Z,114.30
2017-12-03T04:22:13.823Z,107.40
2017-12-03T04:22:49.122Z,107.50
2017-12-03T04:23:24.552Z,103.60
2017-12-03T04:23:59.752Z,107.70
2017-12-03T04:24:34.886Z,113.20
2017-12-03T04:25:10.091Z,110.40
2017-12-03T04:25:45.913Z,112.50
2017-12-03T04:26:21.157Z,102.90
2017-12-03T04:26:56.639Z,100.20
2017-12-03T04:27:32.065Z,112.90
2017-12-03T04:28:07.345Z,109.50
2017-12-03T04:28:42.849Z,99.60
2017-12-03T04:29:18.055Z,106.40
2017-12-03T04:29:53.236Z,109.70
2017-12-03T04:30:28.642Z,110.60
2017-12-03T04:31:04.025Z,112.50
2017-12-03T04:31:39.167Z,108.80
2017-12-03T04:32:14.372Z,111.50
2017-12-03T04:32:49.654Z,109.90
2017-12-03T04:33:24.865Z,107.10
2017-12-03T04:33:59.943Z,109.60
2017-12-03T04:34:35.250Z,105.70
2017-12-03T04:35:10.636Z,105.90
2017-12-03T04:35:46.353Z,114.00
2017-12-03T04:36:21.884Z,107.50
2017-12-03T04:36:56.970Z,112.60
2017-12-03T04:37:32.775Z,112.90
2017-12-03T04:38:08.062Z,113.20
2017-12-03T04:38:43.365Z,110.10
2017-12-03T04:39:18.675Z,108.80
2017-12-03T04:39:54.172Z,101.70
2017-12-03T04:40:29.681Z,96.20
2017-12-03T04:41:04.965Z,101.60
2017-12-03T04:41:40.203Z,98.60
2017-12-03T04:42:15.206Z,99.90
2017-12-03T04:42:50.484Z,98.40
2017-12-03T04:43:25.688Z,98.60
2017-12-03T04:44:01.078Z,99.00
2017-12-03T04:44:36.478Z,107.50
2017-12-03T04:45:11.790Z,107.60
2017-12-03T04:45:47.474Z,101.30
2017-12-03T04:46:22.983Z,107.40
2017-12-03T04:46:58.290Z,106.60
2017-12-03T04:47:33.696Z,107.10
2017-12-03T04:48:08.871Z,106.30
2017-12-03T04:48:44.487Z,100.80
2017-12-03T04:49:19.794Z,101.10
2017-12-03T04:49:55.075Z,108.30
2017-12-03T04:50:30.283Z,103.00
2017-12-03T04:51:05.560Z,102.10
2017-12-03T04:51:40.954Z,97.00
2017-12-03T04:52:16.262Z,95.50
2017-12-03T04:52:51.545Z,105.90
2017-12-03T04:53:30.455Z,109.30
2017-12-03T04:54:05.547Z,103.50
2017-12-03T04:54:40.754Z,109.30
2017-12-03T04:55:16.251Z,113.70
2017-12-03T04:55:51.438Z,107.40
2017-12-03T04:56:26.740Z,104.00
2017-12-03T04:57:02.048Z,107.50
2017-12-03T04:57:37.266Z,108.60
2017-12-03T04:58:12.469Z,114.80
2017-12-03T04:58:48.051Z,109.30
2017-12-03T04:59:23.258Z,110.90
2017-12-03T04:59:58.536Z,109.60
2017-12-03T05:00:34.157Z,105.40
2017-12-03T05:01:09.438Z,104.50
2017-12-03T05:01:44.971Z,103.10
2017-12-03T05:02:20.278Z,105.20
2017-12-03T05:02:55.660Z,107.10
2017-12-03T05:03:31.265Z,107.90
2017-12-03T05:04:06.644Z,110.80
2017-12-03T05:04:42.050Z,101.90
2017-12-03T05:05:17.556Z,103.70
2017-12-03T05:05:52.861Z,104.90
2017-12-03T05:06:29.006Z,99.40
2017-12-03T05:07:04.513Z,100.20
2017-12-03T05:07:39.815Z,105.50
2017-12-03T05:08:15.721Z,97.50
2017-12-03T05:08:51.202Z,102.30
2017-12-03T05:09:26.512Z,102.70
2017-12-03T05:10:01.892Z,100.60
2017-12-03T05:10:36.897Z,108.00
2017-12-03T05:11:12.201Z,101.10
2017-12-03T05:11:47.516Z,112.80
2017-12-03T05:12:22.921Z,110.30
2017-12-03T05:12:58.206Z,101.70
2017-12-03T05:13:33.215Z,109.60
2017-12-03T05:14:08.598Z,102.80
2017-12-03T05:14:43.810Z,95.10
2017-12-03T05:15:19.217Z,98.60
2017-12-03T05:15:54.401Z,105.00
2017-12-03T05:16:29.705Z,102.10
2017-12-03T05:17:05.025Z,99.60
2017-12-03T05:17:40.336Z,106.70
2017-12-03T05:18:15.450Z,105.70
2017-12-03T05:18:50.850Z,97.70
2017-12-03T05:19:26.273Z,99.30
2017-12-03T05:20:01.472Z,104.60
2017-12-03T05:20:36.680Z,109.10
2017-12-03T05:21:11.917Z,106.10
2017-12-03T05:21:47.409Z,107.50
2017-12-03T05:22:22.953Z,108.60
2017-12-03T05:22:58.454Z,100.40
2017-12-03T05:23:33.777Z,98.60
2017-12-03T05:24:08.885Z,109.20
2017-12-03T05:24:44.303Z,104.70
2017-12-03T05:25:19.719Z,107.10
2017-12-03T05:25:55.002Z,114.20
2017-12-03T05:26:30.215Z,95.60
2017-12-03T05:27:05.628Z,89.60
2017-12-03T05:27:41.043Z,94.60
2017-12-03T05:28:16.075Z,96.00
2017-12-03T05:28:51.258Z,103.90
2017-12-03T05:29:26.461Z,107.80
2017-12-03T05:30:02.264Z,101.90
2017-12-03T05:30:37.682Z,106.20
2017-12-03T05:31:13.111Z,107.50
2017-12-03T05:31:48.612Z,99.00
2017-12-03T05:32:24.150Z,109.40
2017-12-03T05:32:59.347Z,109.50
2017-12-03T05:33:34.664Z,106.40
2017-12-03T05:34:09.741Z,107.10
2017-12-03T05:34:44.949Z,103.90
2017-12-03T05:35:20.267Z,104.80
2017-12-03T05:35:55.478Z,108.10
2017-12-03T05:36:30.903Z,108.40
2017-12-03T05:37:06.634Z,107.40
2017-12-03T05:37:41.882Z,107.00
2017-12-03T05:38:17.280Z,101.40
2017-12-03T05:38:52.673Z,111.50
2017-12-03T05:39:27.797Z,113.80
2017-12-03T05:40:03.109Z,102.00
2017-12-03T05:40:38.426Z,93.60
2017-12-03T05:41:13.541Z,95.50
2017-12-03T05:41:48.940Z,96.90
2017-12-03T05:42:24.404Z,100.10
2017-12-03T05:42:59.314Z,99.70
2017-12-03T05:43:34.444Z,101.80
2017-12-03T05:44:09.661Z,107.70
2017-12-03T05:44:44.893Z,99.50
2017-12-03T05:45:20.132Z,103.90
2017-12-03T05:45:55.854Z,98.80
2017-12-03T05:46:30.879Z,92.30
2017-12-03T05:47:06.099Z,100.90
2017-12-03T05:47:41.453Z,104.60
2017-12-03T05:48:16.381Z,109.90
2017-12-03T05:48:51.686Z,108.10
2017-12-03T05:49:26.925Z,100.10
2017-12-03T05:50:02.333Z,102.40
2017-12-03T05:50:37.557Z,109.50
2017-12-03T05:51:13.298Z,114.00
2017-12-03T05:51:48.603Z,111.00
2017-12-03T05:52:23.960Z,104.30
2017-12-03T05:52:59.467Z,109.40
2017-12-03T05:53:34.910Z,111.00
2017-12-03T05:54:10.215Z,111.30
2017-12-03T05:54:45.644Z,110.90
2017-12-03T05:55:20.882Z,106.30
2017-12-03T05:55:56.188Z,106.30
2017-12-03T05:56:31.917Z,105.10
2017-12-03T05:57:07.113Z,101.20
2017-12-03T05:57:42.568Z,108.40
2017-12-03T05:58:18.001Z,112.00
2017-12-03T05:58:53.403Z,107.50
2017-12-03T05:59:28.837Z,100.40
2017-12-03T06:00:04.136Z,107.10
2017-12-03T06:00:39.681Z,107.20
2017-12-03T06:01:15.302Z,106.00
2017-12-03T06:01:50.913Z,108.40
2017-12-03T06:02:26.572Z,105.30
2017-12-03T06:03:01.976Z,112.00
2017-12-03T06:03:37.305Z,103.20
2017-12-03T06:04:12.632Z,96.80
2017-12-03T06:04:47.838Z,101.20
2017-12-03T06:05:23.367Z,98.80
2017-12-03T06:05:58.770Z,104.80
2017-12-03T06:06:33.895Z,115.10
2017-12-03T06:07:08.991Z,112.60
2017-12-03T06:07:44.456Z,105.60
2017-12-03T06:08:19.975Z,103.90
2017-12-03T06:08:55.509Z,103.10
2017-12-03T06:09:30.927Z,100.80
2017-12-03T06:10:06.130Z,105.00
2017-12-03T06:10:41.347Z,107.30
2017-12-03T06:11:16.762Z,98.00
2017-12-03T06:11:52.044Z,100.70
2017-12-03T06:12:27.270Z,111.90
2017-12-03T06:13:02.379Z,106.60
2017-12-03T06:13:37.612Z,103.40
2017-12-03T06:14:12.839Z,109.80
2017-12-03T06:14:48.230Z,107.10
2017-12-03T06:15:23.657Z,103.50
2017-12-03T06:15:58.853Z,112.10
2017-12-03T06:16:34.081Z,101.20
2017-12-03T06:17:09.587Z,109.70
2017-12-03T06:17:45.235Z,105.10
2017-12-03T06:18:20.532Z,104.10
2017-12-03T06:18:55.845Z,102.30
2017-12-03T06:19:31.122Z,113.20
2017-12-03T06:20:06.518Z,109.10
2017-12-03T06:20:42.137Z,111.70
2017-12-03T06:21:17.360Z,112.70
2017-12-03T06:21:52.657Z,105.10
2017-12-03T06:22:27.887Z,112.70
2017-12-03T06:23:03.114Z,115.30
2017-12-03T06:23:38.324Z,107.70
2017-12-03T06:24:13.445Z,108.30
2017-12-03T06:24:48.634Z,115.30
2017-12-03T06:25:24.054Z,109.50
2017-12-03T06:25:59.548Z,105.20
2017-12-03T06:26:34.760Z,107.10
2017-12-03T06:27:10.038Z,105.50
2017-12-03T06:27:45.390Z,101.50
2017-12-03T06:28:20.517Z,109.30
2017-12-03T06:28:55.811Z,113.20
2017-12-03T06:29:31.134Z,116.80
2017-12-03T06:30:06.413Z,103.60
2017-12-03T06:30:42.017Z,107.00
2017-12-03T06:31:17.332Z,118.80
2017-12-03T06:31:52.515Z,112.80
2017-12-03T06:32:27.626Z,103.60
2017-12-03T06:33:02.925Z,103.10
2017-12-03T06:33:38.534Z,106.00
2017-12-03T06:34:13.638Z,106.80
2017-12-03T06:34:48.922Z,118.10
2017-12-03T06:35:23.930Z,118.60
2017-12-03T06:35:59.217Z,118.50
2017-12-03T06:36:34.236Z,117.30
2017-12-03T06:37:09.417Z,107.30
2017-12-03T06:37:44.949Z,114.30
2017-12-03T06:38:20.147Z,112.90
2017-12-03T06:38:55.438Z,115.30
2017-12-03T06:39:30.799Z,108.90
2017-12-03T06:40:06.174Z,107.60
2017-12-03T06:40:41.479Z,110.60
2017-12-03T06:41:16.689Z,114.10
2017-12-03T06:41:51.875Z,118.50
2017-12-03T06:42:27.178Z,111.70
2017-12-03T06:43:02.499Z,104.70
2017-12-03T06:43:37.699Z,110.90
2017-12-03T06:44:13.106Z,104.60
2017-12-03T06:44:48.186Z,105.90
2017-12-03T06:45:23.188Z,118.60
2017-12-03T06:45:58.677Z,109.70
2017-12-03T06:46:33.778Z,116.70
2017-12-03T06:47:09.159Z,117.50
2017-12-03T06:47:44.664Z,117.10
2017-12-03T06:48:19.904Z,121.30
2017-12-03T06:48:55.584Z,116.80
2017-12-03T06:49:30.796Z,120.90
2017-12-03T06:50:05.996Z,113.90
2017-12-03T06:50:41.292Z,111.90
2017-12-03T06:51:16.496Z,115.00
2017-12-03T06:51:51.777Z,120.00
2017-12-03T06:52:26.995Z,118.60
2017-12-03T06:53:02.194Z,125.50
2017-12-03T06:53:37.696Z,119.50
2017-12-03T06:54:13.212Z,117.00
2017-12-03T06:54:48.494Z,116.10
2017-12-03T06:55:23.702Z,118.40
2017-12-03T06:55:58.880Z,124.40
2017-12-03T06:56:34.495Z,115.90
2017-12-03T06:57:09.768Z,112.40
2017-12-03T06:57:44.771Z,119.00
2017-12-03T06:58:20.005Z,114.40
2017-12-03T06:58:55.301Z,103.00
2017-12-03T06:59:30.959Z,110.10
2017-12-03T07:00:06.168Z,111.80
2017-12-03T07:00:41.857Z,111.90
2017-12-03T07:01:17.458Z,114.60
2017-12-03T07:01:52.837Z,125.90
2017-12-03T07:02:27.955Z,123.00
2017-12-03T07:03:03.246Z,117.20
2017-12-03T07:03:38.460Z,119.20
2017-12-03T07:04:13.751Z,117.20
2017-12-03T07:04:49.331Z,117.50
2017-12-03T07:05:24.539Z,121.70
2017-12-03T07:05:59.921Z,112.30
2017-12-03T07:06:35.334Z,116.50
2017-12-03T07:07:10.608Z,112.30
2017-12-03T07:07:45.920Z,109.40
2017-12-03T07:08:21.352Z,110.70
2017-12-03T07:08:56.685Z,114.30
2017-12-03T07:09:32.049Z,112.30
2017-12-03T07:10:07.329Z,116.90
2017-12-03T07:10:42.334Z,109.30
2017-12-03T07:11:17.737Z,111.00
2017-12-03T07:11:53.029Z,105.70
2017-12-03T07:12:28.337Z,109.50
2017-12-03T07:13:06.320Z,120.90
2017-12-03T07:13:41.952Z,114.30
2017-12-03T07:14:17.150Z,104.80
2017-12-03T07:14:52.336Z,112.90
2017-12-03T07:15:27.639Z,112.20
2017-12-03T07:16:02.819Z,110.90
2017-12-03T07:16:38.420Z,108.40
2017-12-03T07:17:13.726Z,114.40
2017-12-03T07:17:49.011Z,115.80
2017-12-03T07:18:24.338Z,112.10
2017-12-03T07:18:59.837Z,113.80
2017-12-03T07:19:35.040Z,122.80
2017-12-03T07:20:10.419Z,122.40
2017-12-03T07:20:45.623Z,113.10
2017-12-03T07:21:20.832Z,105.30
2017-12-03T07:21:56.116Z,104.60
2017-12-03T07:22:31.318Z,115.30